Time;durP1;ratioP1;P1;durP2;ratioP2;P2;SDS_P1;SDS_P2;PMS_P1;PMS_P2;Temp;Humidity;BMP_temperature;BMP_pressure;BME280_temperature;BME280_humidity;BME280_pressure;Samples;Min_cycle;Max_cycle;Signal;HPM_P1;HPM_P2
2023/05/20 00:00:43;;;;;;;;;;;;;;;23.13;31.00;101710.72;4130552;28;20008;-66
2023/05/20 00:02:45;;;;;;;;;;;;;;;23.11;31.13;101705.50;4131815;28;19925;-66
2023/05/20 00:04:47;;;;;;;;;;;;;;;23.11;31.14;101702.81;4131829;28;19921;-66
2023/05/20 00:06:49;;;;;;;;;;;;;;;23.12;31.10;101707.22;4114083;28;19981;-66
2023/05/20 00:08:50;;;;;;;;;;;;;;;23.14;31.10;101699.03;4130622;28;19926;-66
2023/05/20 00:10:52;;;;;;;;;;;;;;;23.11;31.00;101710.84;4131853;28;19925;-67
2023/05/20 00:12:53;;;;;;;;;;;;;;;23.10;31.24;101705.59;4131473;28;19948;-68
2023/05/20 00:14:55;;;;;;;;;;;;;;;23.06;30.99;101699.59;4131347;28;19961;-66
2023/05/20 00:16:57;;;;;;;;;;;;;;;23.05;31.22;101699.69;4130732;28;19957;-66
2023/05/20 00:18:59;;;;;;;;;;;;;;;23.05;31.10;101695.22;4130837;28;19928;-66
2023/05/20 00:21:00;;;;;;;;;;;;;;;23.03;31.13;101698.97;4131152;28;19929;-65
2023/05/20 00:23:02;;;;;;;;;;;;;;;23.06;31.15;101696.94;4131224;28;20021;-65
2023/05/20 00:25:04;;;;;;;;;;;;;;;23.03;31.33;101707.03;4131545;28;19932;-65
2023/05/20 00:27:05;;;;;;;;;;;;;;;23.02;31.40;101690.06;4130480;28;19961;-65
2023/05/20 00:29:06;;;;;;;;;;;;;;;23.02;31.40;101692.72;4130915;28;20402;-65
2023/05/20 00:31:08;;;;;;;;;;;;;;;23.03;31.33;101697.13;4129914;28;20332;-65
2023/05/20 00:33:10;;;;;;;;;;;;;;;23.06;31.37;101701.41;4131473;28;19948;-68
2023/05/20 00:35:12;;;;;;;;;;;;;;;23.04;31.10;101696.16;4130840;28;20025;-67
2023/05/20 00:37:14;;;;;;;;;;;;;;;23.03;31.38;101698.97;4130517;28;20413;-67
2023/05/20 00:39:15;;;;;;;;;;;;;;;23.04;31.22;101700.66;4131004;28;19980;-65
2023/05/20 00:41:17;;;;;;;;;;;;;;;23.06;31.20;101699.59;4131092;28;20502;-67
2023/05/20 00:43:19;;;;;;;;;;;;;;;23.05;31.38;101694.31;4131184;28;20001;-67
2023/05/20 00:45:21;;;;;;;;;;;;;;;23.04;31.20;101690.81;4131261;28;19952;-67
2023/05/20 00:47:25;;;;;;;;;;;;;;;23.06;31.17;101688.88;4130547;28;19922;-68
2023/05/20 00:49:27;;;;;;;;;;;;;;;23.08;31.29;101689.59;4130786;28;19922;-68
2023/05/20 00:51:29;;;;;;;;;;;;;;;23.08;31.11;101688.75;4131051;28;19946;-67
2023/05/20 00:53:31;;;;;;;;;;;;;;;23.08;31.33;101678.03;4131293;28;19928;-67
2023/05/20 00:55:32;;;;;;;;;;;;;;;23.06;31.18;101682.63;4131325;28;19976;-67
2023/05/20 00:57:35;;;;;;;;;;;;;;;23.05;31.14;101672.88;4130421;28;19922;-67
2023/05/20 00:59:37;;;;;;;;;;;;;;;23.09;31.18;101680.59;4130996;28;19922;-68
2023/05/20 01:01:39;;;;;;;;;;;;;;;23.08;30.90;101675.34;4131318;28;20422;-67
2023/05/20 01:03:40;;;;;;;;;;;;;;;23.06;31.18;101674.59;4130609;28;20414;-67
2023/05/20 01:05:42;;;;;;;;;;;;;;;23.05;31.34;101670.19;4131046;28;19921;-67
2023/05/20 01:07:44;;;;;;;;;;;;;;;23.04;31.14;101672.03;4130093;28;19965;-67
2023/05/20 01:09:46;;;;;;;;;;;;;;;23.04;31.21;101666.66;4129972;28;19933;-68
2023/05/20 01:11:49;;;;;;;;;;;;;;;23.02;31.27;101662.38;4131122;28;19965;-67
2023/05/20 01:13:57;;;;;;;;;;;;;;;23.03;31.17;101664.94;4131157;28;20036;-66
2023/05/20 01:15:59;;;;;;;;;;;;;;;23.02;31.20;101662.38;4131174;28;20034;-67
2023/05/20 01:18:04;;;;;;;;;;;;;;;23.02;31.27;101657.84;4130082;28;19922;-66
2023/05/20 01:20:09;;;;;;;;;;;;;;;23.00;31.35;101662.47;4131197;28;19922;-66
2023/05/20 01:22:12;;;;;;;;;;;;;;;22.98;31.34;101657.22;4131202;28;19959;-67
2023/05/20 01:24:14;;;;;;;;;;;;;;;22.97;31.49;101665.38;4113705;28;19926;-67
2023/05/20 01:26:17;;;;;;;;;;;;;;;22.98;31.18;101654.53;4113843;28;19994;-66
2023/05/20 01:28:20;;;;;;;;;;;;;;;23.02;31.17;101662.38;4132729;28;19929;-66
2023/05/20 01:30:22;;;;;;;;;;;;;;;23.03;31.17;101659.56;4134124;28;19997;-67
2023/05/20 01:32:30;;;;;;;;;;;;;;;23.05;31.40;101663.00;4133794;28;19921;-67
2023/05/20 01:34:34;;;;;;;;;;;;;;;23.02;31.37;101660.53;4134117;28;20391;-67
2023/05/20 01:36:36;;;;;;;;;;;;;;;23.03;31.25;101661.41;4116648;28;19926;-68
2023/05/20 01:38:38;;;;;;;;;;;;;;;23.01;31.02;101655.28;4132736;28;19921;-67
2023/05/20 01:40:40;;;;;;;;;;;;;;;23.00;31.20;101657.09;4133961;28;20431;-67
2023/05/20 01:42:42;;;;;;;;;;;;;;;23.01;31.16;101656.13;4133903;28;19921;-67
2023/05/20 01:44:44;;;;;;;;;;;;;;;23.00;31.14;101651.72;4133845;28;19922;-67
2023/05/20 01:46:49;;;;;;;;;;;;;;;22.98;31.57;101651.00;4133507;28;19932;-68
2023/05/20 01:48:51;;;;;;;;;;;;;;;23.00;31.21;101649.06;4131584;28;19925;-68
2023/05/20 01:50:52;;;;;;;;;;;;;;;23.00;31.16;101650.91;4133821;28;20398;-67
2023/05/20 01:52:54;;;;;;;;;;;;;;;22.97;31.21;101649.28;4133690;28;20273;-68
2023/05/20 01:54:55;;;;;;;;;;;;;;;22.97;31.16;101643.94;4133859;28;20323;-67
2023/05/20 01:56:57;;;;;;;;;;;;;;;22.97;31.42;101641.25;4133673;28;19929;-67
2023/05/20 01:58:58;;;;;;;;;;;;;;;22.96;31.17;101643.06;4132520;28;19929;-67
2023/05/20 02:01:00;;;;;;;;;;;;;;;22.97;31.23;101647.47;4133241;28;19976;-67
2023/05/20 02:03:02;;;;;;;;;;;;;;;22.95;31.41;101645.84;4133795;28;19922;-68
2023/05/20 02:05:04;;;;;;;;;;;;;;;22.94;31.60;101641.47;4133534;28;19921;-66
2023/05/20 02:07:06;;;;;;;;;;;;;;;22.91;31.72;101647.06;4133423;28;19965;-67
2023/05/20 02:09:07;;;;;;;;;;;;;;;22.89;31.36;101631.09;4132270;28;19928;-68
2023/05/20 02:11:09;;;;;;;;;;;;;;;22.90;31.38;101630.09;4133311;28;19922;-66
2023/05/20 02:13:10;;;;;;;;;;;;;;;22.91;31.36;101639.03;4133498;28;20008;-66
2023/05/20 02:15:12;;;;;;;;;;;;;;;22.91;31.36;101637.19;4133208;28;20016;-66
2023/05/20 02:17:15;;;;;;;;;;;;;;;22.90;31.52;101640.81;4133058;28;19928;-65
2023/05/20 02:19:22;;;;;;;;;;;;;;;22.90;31.29;101635.47;4114948;28;20411;-66
2023/05/20 02:21:24;;;;;;;;;;;;;;;22.90;31.51;101632.78;4133158;28;20285;-66
2023/05/20 02:23:26;;;;;;;;;;;;;;;22.91;31.21;101633.66;4133201;28;19948;-65
2023/05/20 02:25:27;;;;;;;;;;;;;;;22.92;31.26;101636.22;4132976;28;19957;-66
2023/05/20 02:27:29;;;;;;;;;;;;;;;22.90;31.40;101637.31;4132411;28;20028;-66
2023/05/20 02:29:30;;;;;;;;;;;;;;;22.88;31.39;101633.88;4132949;28;20240;-65
2023/05/20 02:31:32;;;;;;;;;;;;;;;22.89;31.30;101631.09;4132554;28;19960;-65
2023/05/20 02:33:33;;;;;;;;;;;;;;;22.89;31.65;101628.41;4133118;28;19925;-65
2023/05/20 02:35:35;;;;;;;;;;;;;;;22.90;31.43;101638.16;4133312;28;20009;-65
2023/05/20 02:37:38;;;;;;;;;;;;;;;22.90;31.29;101637.31;4131983;28;20015;-65
2023/05/20 02:39:40;;;;;;;;;;;;;;;22.83;31.63;101622.63;4099912;28;20390;-65
2023/05/20 02:41:41;;;;;;;;;;;;;;;22.90;31.33;101629.25;4100791;29;19934;-65
2023/05/20 02:43:44;;;;;;;;;;;;;;;22.90;31.58;101629.25;4100830;29;20431;-66
2023/05/20 02:45:45;;;;;;;;;;;;;;;22.91;31.26;101629.13;4100429;29;19929;-65
2023/05/20 02:47:47;;;;;;;;;;;;;;;22.92;31.63;101630.00;4100198;29;19947;-66
2023/05/20 02:49:49;;;;;;;;;;;;;;;22.90;31.62;101631.94;4100548;29;20298;-65
2023/05/20 02:51:50;;;;;;;;;;;;;;;22.88;31.67;101626.69;4099479;29;19926;-65
2023/05/20 02:53:52;;;;;;;;;;;;;;;22.88;31.74;101620.47;4100868;29;19926;-65
2023/05/20 02:55:54;;;;;;;;;;;;;;;22.89;31.65;101628.41;4100685;29;19922;-65
2023/05/20 02:57:55;;;;;;;;;;;;;;;22.88;31.45;101623.13;4099801;29;19985;-66
2023/05/20 02:59:59;;;;;;;;;;;;;;;22.85;31.53;101620.69;4100288;29;20360;-66
2023/05/20 03:02:02;;;;;;;;;;;;;;;22.84;31.83;101619.81;4100693;29;19922;-67
2023/05/20 03:04:03;;;;;;;;;;;;;;;22.83;31.89;101618.09;4100587;29;19954;-67
2023/05/20 03:06:05;;;;;;;;;;;;;;;22.81;31.82;101618.22;4100535;29;19926;-67
2023/05/20 03:08:08;;;;;;;;;;;;;;;22.81;31.89;101618.22;4099764;29;19930;-66
2023/05/20 03:10:10;;;;;;;;;;;;;;;22.82;31.60;101616.41;4100167;29;19922;-66
2023/05/20 03:12:11;;;;;;;;;;;;;;;22.84;31.87;101621.66;4100552;29;19967;-67
2023/05/20 03:14:13;;;;;;;;;;;;;;;22.84;31.72;101616.31;4100218;29;19926;-66
2023/05/20 03:16:15;;;;;;;;;;;;;;;22.83;31.71;101618.09;4100401;29;19965;-66
2023/05/20 03:18:17;;;;;;;;;;;;;;;22.83;31.84;101615.44;4099504;28;19930;-66
2023/05/20 03:20:19;;;;;;;;;;;;;;;22.83;31.75;101617.25;4099195;29;19978;-65
2023/05/20 03:22:20;;;;;;;;;;;;;;;22.80;31.76;101604.94;4100366;29;20418;-66
2023/05/20 03:24:22;;;;;;;;;;;;;;;22.81;31.96;101609.34;4100100;29;19922;-66
2023/05/20 03:26:24;;;;;;;;;;;;;;;22.83;31.66;101606.53;4116321;28;19965;-66
2023/05/20 03:28:27;;;;;;;;;;;;;;;22.82;31.96;101608.38;4130802;28;19961;-65
2023/05/20 03:30:28;;;;;;;;;;;;;;;22.85;31.70;101605.44;4132013;28;19968;-66
2023/05/20 03:32:30;;;;;;;;;;;;;;;22.85;32.09;101607.28;4132338;28;19995;-66
2023/05/20 03:34:32;;;;;;;;;;;;;;;22.85;31.66;101607.28;4132104;28;19952;-67
2023/05/20 03:36:33;;;;;;;;;;;;;;;22.86;31.64;101606.31;4132140;28;19949;-66
2023/05/20 03:38:35;;;;;;;;;;;;;;;22.86;31.87;101603.63;4130856;28;19925;-66
2023/05/20 03:40:36;;;;;;;;;;;;;;;22.81;31.83;101596.78;4131995;28;19960;-66
2023/05/20 03:42:38;;;;;;;;;;;;;;;22.83;31.97;101593.97;4131847;28;20012;-66
2023/05/20 03:44:39;;;;;;;;;;;;;;;22.81;31.80;101602.13;4131883;28;20446;-66
2023/05/20 03:46:41;;;;;;;;;;;;;;;22.80;31.58;101603.09;4132158;28;20412;-66
2023/05/20 03:48:43;;;;;;;;;;;;;;;22.79;31.80;101593.34;4131126;28;19928;-66
2023/05/20 03:50:44;;;;;;;;;;;;;;;22.80;32.03;101594.22;4131931;28;19922;-66
2023/05/20 03:52:46;;;;;;;;;;;;;;;22.80;32.08;101589.69;4132028;28;20276;-66
2023/05/20 03:54:48;;;;;;;;;;;;;;;22.83;31.81;101591.28;4130930;28;20298;-67
2023/05/20 03:56:50;;;;;;;;;;;;;;;22.83;31.79;101595.81;4132042;28;19930;-67
2023/05/20 03:58:52;;;;;;;;;;;;;;;22.83;31.72;101588.59;4130494;28;19969;-66
2023/05/20 04:00:54;;;;;;;;;;;;;;;22.84;31.81;101590.31;4131786;28;19922;-67
2023/05/20 04:02:55;;;;;;;;;;;;;;;22.86;31.54;101595.59;4131729;28;19929;-67
2023/05/20 04:05:00;;;;;;;;;;;;;;;22.83;31.75;101585.91;4131546;28;19925;-66
2023/05/20 04:07:06;;;;;;;;;;;;;;;22.83;31.79;101591.28;4131624;28;19922;-66
2023/05/20 04:09:08;;;;;;;;;;;;;;;22.80;31.95;101589.69;4130430;28;19926;-66
2023/05/20 04:11:09;;;;;;;;;;;;;;;22.79;31.95;101579.94;4131453;28;19922;-66
2023/05/20 04:13:11;;;;;;;;;;;;;;;22.75;32.04;101589.19;4131372;28;19928;-67
2023/05/20 04:15:13;;;;;;;;;;;;;;;22.76;32.16;101579.28;4131726;28;20013;-65
2023/05/20 04:17:15;;;;;;;;;;;;;;;22.78;31.89;101585.41;4131563;28;19925;-66
2023/05/20 04:19:19;;;;;;;;;;;;;;;22.78;31.85;101580.03;4130542;28;20330;-66
2023/05/20 04:21:21;;;;;;;;;;;;;;;22.77;32.27;101581.88;4131555;28;19968;-66
2023/05/20 04:23:23;;;;;;;;;;;;;;;22.77;31.87;101589.06;4131217;28;19921;-67
2023/05/20 04:25:25;;;;;;;;;;;;;;;22.78;32.09;101585.41;4131404;28;20351;-67
2023/05/20 04:27:27;;;;;;;;;;;;;;;22.77;31.78;101583.69;4131042;28;20006;-66
2023/05/20 04:29:29;;;;;;;;;;;;;;;22.77;31.86;101584.56;4130265;28;19976;-68
2023/05/20 04:31:30;;;;;;;;;;;;;;;22.78;31.87;101591.66;4131476;28;20017;-65
2023/05/20 04:33:32;;;;;;;;;;;;;;;22.74;32.15;101576.72;4131262;28;19928;-67
2023/05/20 04:35:36;;;;;;;;;;;;;;;22.75;32.06;101591.03;4131184;28;19968;-67
2023/05/20 04:37:37;;;;;;;;;;;;;;;22.75;32.00;101589.19;4131198;28;19930;-66
2023/05/20 04:39:42;;;;;;;;;;;;;;;22.74;31.92;101597.34;4129985;28;19921;-67
2023/05/20 04:41:43;;;;;;;;;;;;;;;22.70;32.21;101587.78;4130816;28;20013;-67
2023/05/20 04:43:45;;;;;;;;;;;;;;;22.72;32.07;101584.03;4131323;28;20423;-67
2023/05/20 04:45:46;;;;;;;;;;;;;;;22.72;31.93;101589.38;4131014;28;19928;-66
2023/05/20 04:47:48;;;;;;;;;;;;;;;22.72;32.06;101575.13;4131079;28;20395;-66
2023/05/20 04:49:49;;;;;;;;;;;;;;;22.73;32.01;101584.91;4130461;28;19926;-65
2023/05/20 04:51:51;;;;;;;;;;;;;;;22.72;32.06;101586.72;4131139;28;19928;-66
2023/05/20 04:53:53;;;;;;;;;;;;;;;22.73;32.07;101577.69;4131330;28;20383;-66
2023/05/20 04:55:55;;;;;;;;;;;;;;;22.70;32.14;101583.31;4130984;28;19952;-66
2023/05/20 04:57:57;;;;;;;;;;;;;;;22.69;32.30;101586.94;4130785;28;19932;-67
2023/05/20 04:59:59;;;;;;;;;;;;;;;22.71;32.24;101594.88;4131047;28;19929;-67
2023/05/20 05:02:01;;;;;;;;;;;;;;;22.68;32.32;101589.75;4132256;28;20008;-65
2023/05/20 05:04:03;;;;;;;;;;;;;;;22.63;32.07;101585.56;4134458;28;20020;-66
2023/05/20 05:06:04;;;;;;;;;;;;;;;22.59;32.22;101584.09;4117271;28;19922;-65
2023/05/20 05:08:06;;;;;;;;;;;;;;;22.62;32.46;101586.53;4133668;28;19929;-67
2023/05/20 05:10:08;;;;;;;;;;;;;;;22.63;32.16;101584.72;4133892;28;19921;-66
2023/05/20 05:12:09;;;;;;;;;;;;;;;22.65;32.16;101580.13;4134456;28;19953;-66
2023/05/20 05:14:11;;;;;;;;;;;;;;;22.67;32.07;101577.31;4134416;28;19960;-66
2023/05/20 05:16:12;;;;;;;;;;;;;;;22.66;32.18;101584.47;4134416;28;19996;-65
2023/05/20 05:18:17;;;;;;;;;;;;;;;22.65;32.35;101575.59;4133589;28;19953;-66
2023/05/20 05:20:18;;;;;;;;;;;;;;;22.63;32.05;101571.31;4134154;28;19936;-67
2023/05/20 05:22:20;;;;;;;;;;;;;;;22.64;32.23;101573.03;4132843;28;20016;-66
2023/05/20 05:24:22;;;;;;;;;;;;;;;22.64;32.40;101579.25;4133583;28;19921;-67
2023/05/20 05:26:23;;;;;;;;;;;;;;;22.65;32.35;101580.13;4134049;28;19922;-66
2023/05/20 05:28:25;;;;;;;;;;;;;;;22.65;32.28;101577.44;4132923;28;19925;-67
2023/05/20 05:30:27;;;;;;;;;;;;;;;22.63;32.46;101576.69;4133953;28;19922;-67
2023/05/20 05:32:28;;;;;;;;;;;;;;;22.63;32.28;101574.00;4133903;28;19925;-67
2023/05/20 05:34:30;;;;;;;;;;;;;;;22.65;32.26;101582.78;4133707;28;19928;-67
2023/05/20 05:36:32;;;;;;;;;;;;;;;22.64;32.16;101581.06;4133970;28;20025;-67
2023/05/20 05:38:34;;;;;;;;;;;;;;;22.62;32.22;101583.84;4132826;28;19921;-67
2023/05/20 05:40:36;;;;;;;;;;;;;;;22.64;32.51;101581.06;4133921;28;19926;-67
2023/05/20 05:42:37;;;;;;;;;;;;;;;22.65;32.50;101588.16;4134067;28;20431;-67
2023/05/20 05:44:39;;;;;;;;;;;;;;;22.64;32.45;101589.13;4133702;28;20430;-67
2023/05/20 05:46:41;;;;;;;;;;;;;;;22.64;32.21;101578.41;4133560;28;20511;-66
2023/05/20 05:48:47;;;;;;;;;;;;;;;22.61;32.49;101579.47;4132821;28;19968;-67
2023/05/20 05:50:49;;;;;;;;;;;;;;;22.61;32.38;101573.25;4133512;28;19936;-67
2023/05/20 05:52:51;;;;;;;;;;;;;;;22.62;32.41;101575.81;4133759;28;19930;-67
2023/05/20 05:54:53;;;;;;;;;;;;;;;22.61;32.32;101581.28;4133639;28;19926;-67
2023/05/20 05:56:57;;;;;;;;;;;;;;;22.60;32.41;101583.13;4133870;28;20359;-66
2023/05/20 05:58:59;;;;;;;;;;;;;;;22.58;32.31;101578.84;4132849;28;19957;-67
2023/05/20 06:01:00;;;;;;;;;;;;;;;22.58;32.60;101576.16;4133730;28;19922;-67
2023/05/20 06:03:02;;;;;;;;;;;;;;;22.59;32.52;101570.69;4116253;28;19922;-67
2023/05/20 06:05:04;;;;;;;;;;;;;;;22.61;32.22;101573.25;4133686;28;19932;-67
2023/05/20 06:07:06;;;;;;;;;;;;;;;22.60;32.58;101564.34;4133701;28;20363;-67
2023/05/20 06:09:07;;;;;;;;;;;;;;;22.61;32.33;101565.19;4132432;28;19928;-67
2023/05/20 06:11:09;;;;;;;;;;;;;;;22.62;32.34;101561.56;4133315;28;19925;-67
2023/05/20 06:13:11;;;;;;;;;;;;;;;22.62;32.38;101561.56;4133026;28;20356;-66
2023/05/20 06:15:12;;;;;;;;;;;;;;;22.62;32.30;101567.75;4133214;28;19963;-66
2023/05/20 06:17:14;;;;;;;;;;;;;;;22.60;32.42;101566.16;4133373;28;19976;-67
2023/05/20 06:19:15;;;;;;;;;;;;;;;22.60;32.41;101568.84;4132489;28;20348;-68
2023/05/20 06:21:17;;;;;;;;;;;;;;;22.60;32.55;101574.22;4133419;28;19961;-67
2023/05/20 06:23:19;;;;;;;;;;;;;;;22.61;32.53;101568.75;4132866;28;19932;-67
2023/05/20 06:25:21;;;;;;;;;;;;;;;22.59;32.36;101570.69;4133074;28;19932;-66
2023/05/20 06:27:23;;;;;;;;;;;;;;;22.59;32.62;101570.69;4133008;28;19926;-68
2023/05/20 06:29:25;;;;;;;;;;;;;;;22.59;32.64;101573.38;4131989;28;20299;-65
2023/05/20 06:31:26;;;;;;;;;;;;;;;22.61;32.52;101574.13;4133140;28;19928;-67
2023/05/20 06:33:28;;;;;;;;;;;;;;;22.60;32.43;101569.72;4115946;28;19922;-66
2023/05/20 06:35:33;;;;;;;;;;;;;;;22.59;32.78;101565.31;4133069;28;19965;-67
2023/05/20 06:37:35;;;;;;;;;;;;;;;22.59;32.72;101561.75;4132747;28;19968;-67
2023/05/20 06:39:37;;;;;;;;;;;;;;;22.56;32.56;101560.16;4131987;28;20431;-68
2023/05/20 06:41:39;;;;;;;;;;;;;;;22.57;32.69;101553.00;4133013;28;19926;-68
2023/05/20 06:43:41;;;;;;;;;;;;;;;22.59;32.55;101548.34;4132814;28;20016;-67
2023/05/20 06:45:42;;;;;;;;;;;;;;;22.56;32.61;101544.09;4132990;28;19928;-67
2023/05/20 06:47:44;;;;;;;;;;;;;;;22.55;32.39;101538.84;4133074;28;19932;-66
2023/05/20 06:49:46;;;;;;;;;;;;;;;22.54;32.82;101539.81;4132204;28;20358;-67
2023/05/20 06:51:48;;;;;;;;;;;;;;;22.56;32.55;101541.41;4132492;28;19922;-67
2023/05/20 06:53:49;;;;;;;;;;;;;;;22.55;32.86;101542.38;4132949;28;19926;-67
2023/05/20 06:55:57;;;;;;;;;;;;;;;22.56;32.73;101543.25;4132858;28;19968;-67
2023/05/20 06:57:58;;;;;;;;;;;;;;;22.55;32.53;101539.69;4132944;28;20351;-66
2023/05/20 07:00:00;;;;;;;;;;;;;;;22.57;32.75;101542.28;4131833;28;20003;-66
2023/05/20 07:02:02;;;;;;;;;;;;;;;22.57;32.50;101544.97;4132855;28;20429;-66
2023/05/20 07:04:04;;;;;;;;;;;;;;;22.60;32.52;101547.41;4132777;28;19921;-66
2023/05/20 07:06:05;;;;;;;;;;;;;;;22.58;32.64;101544.84;4132227;28;19922;-66
2023/05/20 07:08:10;;;;;;;;;;;;;;;22.60;32.82;101542.03;4132728;28;19921;-67
2023/05/20 07:10:12;;;;;;;;;;;;;;;22.60;32.59;101548.28;4130428;28;19925;-66
2023/05/20 07:12:13;;;;;;;;;;;;;;;22.59;32.72;101545.69;4132367;28;19932;-67
2023/05/20 07:14:15;;;;;;;;;;;;;;;22.60;32.77;101545.59;4132325;28;19922;-66
2023/05/20 07:16:16;;;;;;;;;;;;;;;22.57;32.72;101543.13;4131454;28;19922;-67
2023/05/20 07:18:18;;;;;;;;;;;;;;;22.59;32.85;101540.31;4132408;28;19926;-67
2023/05/20 07:20:20;;;;;;;;;;;;;;;22.58;33.07;101544.84;4131314;28;20367;-67
2023/05/20 07:22:21;;;;;;;;;;;;;;;22.57;32.91;101540.44;4132573;28;19921;-66
2023/05/20 07:24:23;;;;;;;;;;;;;;;22.60;32.85;101537.53;4131989;28;20020;-66
2023/05/20 07:26:24;;;;;;;;;;;;;;;22.62;32.82;101526.69;4131911;28;19922;-67
2023/05/20 07:28:26;;;;;;;;;;;;;;;22.64;32.89;101532.81;4131778;28;20429;-67
2023/05/20 07:30:27;;;;;;;;;;;;;;;22.64;32.95;101536.34;4131711;28;19945;-66
2023/05/20 07:32:29;;;;;;;;;;;;;;;22.65;33.08;101531.84;4132109;28;19921;-66
2023/05/20 07:34:30;;;;;;;;;;;;;;;22.65;32.88;101527.34;4132081;28;19922;-66
2023/05/20 07:36:32;;;;;;;;;;;;;;;22.63;32.82;101523.91;4132181;28;20360;-66
2023/05/20 07:38:33;;;;;;;;;;;;;;;22.64;32.72;101530.13;4131348;28;19944;-67
2023/05/20 07:40:35;;;;;;;;;;;;;;;22.64;32.96;101527.44;4131693;28;20020;-66
2023/05/20 07:42:37;;;;;;;;;;;;;;;22.65;32.94;101523.81;4131939;28;19922;-67
2023/05/20 07:44:39;;;;;;;;;;;;;;;22.68;32.95;101526.25;4132105;28;19929;-66
2023/05/20 07:46:40;;;;;;;;;;;;;;;22.68;33.19;101526.25;4131991;28;19949;-67
2023/05/20 07:48:43;;;;;;;;;;;;;;;22.69;32.82;101529.81;4131296;28;20383;-66
2023/05/20 07:50:44;;;;;;;;;;;;;;;22.59;32.88;101505.47;4131334;28;19922;-66
2023/05/20 07:52:49;;;;;;;;;;;;;;;22.70;32.89;101524.31;4130544;28;19956;-67
2023/05/20 07:54:57;;;;;;;;;;;;;;;22.71;32.93;101509.94;4131843;28;19933;-67
2023/05/20 07:56:59;;;;;;;;;;;;;;;22.70;32.76;101505.53;4130361;28;19928;-67
2023/05/20 07:59:02;;;;;;;;;;;;;;;22.72;33.12;101513.47;4130888;28;19922;-66
2023/05/20 08:01:03;;;;;;;;;;;;;;;22.71;32.92;101506.38;4131828;28;19926;-67
2023/05/20 08:03:06;;;;;;;;;;;;;;;22.70;32.86;101504.66;4114354;28;19922;-67
2023/05/20 08:05:09;;;;;;;;;;;;;;;22.70;33.17;101508.22;4131566;28;20000;-67
2023/05/20 08:07:10;;;;;;;;;;;;;;;22.68;32.96;101507.47;4131891;28;19945;-67
2023/05/20 08:09:12;;;;;;;;;;;;;;;22.67;33.16;101505.75;4130856;28;19921;-67
2023/05/20 08:11:13;;;;;;;;;;;;;;;22.69;33.29;101506.50;4131697;28;19979;-67
2023/05/20 08:13:15;;;;;;;;;;;;;;;22.69;33.07;101509.19;4131764;28;19929;-67
2023/05/20 08:15:17;;;;;;;;;;;;;;;22.73;32.99;101507.13;4131536;28;20355;-67
2023/05/20 08:17:18;;;;;;;;;;;;;;;22.72;33.24;101508.09;4131802;28;19928;-67
2023/05/20 08:19:20;;;;;;;;;;;;;;;22.71;33.10;101498.34;4130378;28;19925;-65
2023/05/20 08:21:22;;;;;;;;;;;;;;;22.69;33.22;101497.63;4131668;28;19922;-67
2023/05/20 08:23:24;;;;;;;;;;;;;;;22.71;33.35;101499.22;4131455;28;19925;-67
2023/05/20 08:25:26;;;;;;;;;;;;;;;22.69;33.42;101493.09;4131307;28;20417;-67
2023/05/20 08:27:27;;;;;;;;;;;;;;;22.71;33.25;101490.28;4131598;28;19922;-66
2023/05/20 08:29:29;;;;;;;;;;;;;;;22.70;33.24;101499.31;4130347;28;19929;-66
2023/05/20 08:31:31;;;;;;;;;;;;;;;22.68;33.44;101491.38;4131365;28;19972;-67
2023/05/20 08:33:33;;;;;;;;;;;;;;;22.69;33.41;101489.56;4131005;28;19949;-67
2023/05/20 08:35:37;;;;;;;;;;;;;;;22.71;33.37;101492.97;4131239;28;19925;-67
2023/05/20 08:37:39;;;;;;;;;;;;;;;22.72;33.46;101483.97;4130650;28;19928;-66
2023/05/20 08:39:40;;;;;;;;;;;;;;;22.69;33.41;101482.38;4098181;29;19927;-67
2023/05/20 08:41:42;;;;;;;;;;;;;;;22.72;33.39;101482.13;4099211;29;19929;-67
2023/05/20 08:43:43;;;;;;;;;;;;;;;22.73;33.54;101483.00;4099190;29;20021;-66
2023/05/20 08:45:45;;;;;;;;;;;;;;;22.73;33.18;101481.16;4099347;29;19963;-67
2023/05/20 08:47:47;;;;;;;;;;;;;;;22.73;33.47;101477.63;4098811;29;19922;-67
2023/05/20 08:49:48;;;;;;;;;;;;;;;22.74;33.36;101474.84;4098103;29;20336;-67
2023/05/20 08:51:50;;;;;;;;;;;;;;;22.74;33.15;101469.47;4081923;29;20375;-67
2023/05/20 08:53:52;;;;;;;;;;;;;;;22.73;33.33;101466.91;4099023;28;20431;-67
2023/05/20 08:55:56;;;;;;;;;;;;;;;22.78;33.58;101470.09;4099280;29;20281;-66
2023/05/20 08:58:02;;;;;;;;;;;;;;;22.75;33.44;101464.97;4099126;29;20337;-67
2023/05/20 09:00:12;;;;;;;;;;;;;;;22.74;33.23;101460.59;4098053;29;19953;-67
2023/05/20 09:02:13;;;;;;;;;;;;;;;22.72;33.49;101475.91;4098803;29;20010;-66
2023/05/20 09:04:16;;;;;;;;;;;;;;;22.74;33.66;101468.63;4099237;29;19922;-66
2023/05/20 09:06:20;;;;;;;;;;;;;;;22.77;33.51;101468.38;4099069;29;20092;-66
2023/05/20 09:08:25;;;;;;;;;;;;;;;22.80;33.43;101466.31;4098901;29;19929;-67
2023/05/20 09:10:27;;;;;;;;;;;;;;;22.83;33.26;101469.75;4098165;29;19934;-67
2023/05/20 09:12:29;;;;;;;;;;;;;;;22.78;33.41;101465.59;4098858;29;19934;-67
2023/05/20 09:14:31;;;;;;;;;;;;;;;22.79;33.50;101453.88;4098950;29;20353;-67
2023/05/20 09:16:32;;;;;;;;;;;;;;;22.78;33.53;101454.88;4098643;29;20391;-69
2023/05/20 09:18:37;;;;;;;;;;;;;;;22.71;33.53;101455.44;4099095;29;20328;-68
2023/05/20 09:20:40;;;;;;;;;;;;;;;22.69;33.38;101455.56;4098123;29;19923;-67
2023/05/20 09:22:41;;;;;;;;;;;;;;;22.70;33.21;101451.03;4098919;29;20001;-69
2023/05/20 09:24:43;;;;;;;;;;;;;;;22.71;33.37;101453.63;4098729;29;20300;-68
2023/05/20 09:26:45;;;;;;;;;;;;;;;22.70;33.36;101451.03;4120958;28;19929;-69
2023/05/20 09:28:46;;;;;;;;;;;;;;;22.71;33.41;101452.75;4130627;28;20430;-69
2023/05/20 09:30:49;;;;;;;;;;;;;;;22.68;32.94;101448.47;4130479;28;20397;-68
2023/05/20 09:32:54;;;;;;;;;;;;;;;22.71;33.00;101440.22;4131046;28;19961;-69
2023/05/20 09:34:57;;;;;;;;;;;;;;;22.71;32.96;101437.53;4130742;28;19922;-67
2023/05/20 09:36:59;;;;;;;;;;;;;;;22.71;33.40;101434.88;4131009;28;19944;-68
2023/05/20 09:39:02;;;;;;;;;;;;;;;22.71;32.97;101437.53;4129972;28;19925;-69
2023/05/20 09:41:06;;;;;;;;;;;;;;;22.72;33.36;101430.34;4130444;28;19922;-68
2023/05/20 09:43:10;;;;;;;;;;;;;;;22.69;33.24;101425.22;4131058;28;19922;-67
2023/05/20 09:45:12;;;;;;;;;;;;;;;22.68;33.20;101429.72;4130535;28;19930;-68
2023/05/20 09:47:15;;;;;;;;;;;;;;;22.68;33.31;101435.06;4131047;28;19928;-68
2023/05/20 09:49:17;;;;;;;;;;;;;;;22.69;33.24;101428.75;4132545;28;20012;-68
2023/05/20 09:51:21;;;;;;;;;;;;;;;22.72;33.28;101422.28;4133723;28;19921;-67
2023/05/20 09:53:25;;;;;;;;;;;;;;;22.72;33.45;101425.81;4133757;28;20308;-66
2023/05/20 09:55:28;;;;;;;;;;;;;;;22.72;33.11;101422.28;4133797;28;19929;-68
2023/05/20 09:57:32;;;;;;;;;;;;;;;22.75;33.02;101412.19;4133546;28;20025;-68
2023/05/20 09:59:35;;;;;;;;;;;;;;;22.75;33.07;101411.34;4132402;28;20347;-68
2023/05/20 10:01:37;;;;;;;;;;;;;;;22.75;33.32;101401.47;4133421;28;19932;-68
2023/05/20 10:03:39;;;;;;;;;;;;;;;22.77;33.01;101414.75;4133424;28;19922;-69
2023/05/20 10:05:47;;;;;;;;;;;;;;;22.73;33.21;101408.75;4133463;28;20487;-69
2023/05/20 10:08:04;;;;;;;;;;;;;;;22.71;33.16;101405.38;4133410;28;19989;-68
2023/05/20 10:10:16;;;;;;;;;;;;;;;22.73;33.00;101398.03;4132533;28;19921;-68
2023/05/20 10:12:25;;;;;;;;;;;;;;;22.74;33.15;101393.53;4133537;28;19922;-69
2023/05/20 10:14:27;;;;;;;;;;;;;;;22.75;32.84;101398.78;4133355;28;20391;-68
2023/05/20 10:16:44;;;;;;;;;;;;;;;22.75;33.32;101395.25;4133395;28;20012;-68
2023/05/20 10:19:04;;;;;;;;;;;;;;;22.76;32.88;101389.78;4133194;28;19922;-68
2023/05/20 10:21:14;;;;;;;;;;;;;;;22.73;32.78;101394.50;4133238;28;20024;-68
2023/05/20 10:23:22;;;;;;;;;;;;;;;22.76;32.93;101391.56;4133287;28;19921;-68
2023/05/20 10:25:26;;;;;;;;;;;;;;;22.79;33.25;101391.34;4133251;28;20268;-68
2023/05/20 10:27:27;;;;;;;;;;;;;;;22.78;32.78;101400.38;4133405;28;19922;-68